Nearby METAR Reports

 

KVSF - Springfield, Vermont, USA
Distance from station: WNW 17mi, 27km
Updated: Wed, Sep-26-2018 12:30am EDT
Overcast
Overcast
 Wind from calm
Wind: Calm
Temperature: 54°F , 12°C
Dew Point: 54°F , 12°C
Humidity: 100%
Barometer: 30.12 inHg , 1020 hPa
Clouds: Overcast
Visibility: 9 miles , 14 km
Cloud details: Overcast 600 ft
2018/09/26 04:30 KVSF 260430Z AUTO 00000KT 9SM OVC006 12/12 A3012 RMK AO2 T01220122
KLEB - Lebanon, New Hampshire, USA
Distance from station: NNW 24mi, 39km
Updated: Wed, Sep-26-2018 12:15am EDT
Overcast
Overcast
 Wind from calm
Wind: Calm
Temperature: 57°F , 14°C
Dew Point: 54°F , 12°C
Humidity: 88%
Barometer: 30.11 inHg , 1019.6 hPa
Clouds: Overcast
Visibility: 8 miles , 13 km
Cloud details: Mostly cloudy 400 ft
Overcast 800 ft
2018/09/26 04:15 KLEB 260415Z AUTO 00000KT 8SM BKN004 OVC008 14/12 A3011 RMK AO2 CIG 001V006 T01390122
 
KEEN - Keene/Dillant, New Hampshire, USA
Distance from station: S 28mi, 45km
Updated: Wed, Sep-26-2018 12:34am EDT
Mist, Overcast
Mist, Overcast
 Wind from calm
Wind: Calm
Barometer: 30.13 inHg , 1020.3 hPa
Summary: Mist
Clouds: Overcast
Visibility: 2 miles , 3 km
Cloud details: Overcast 200 ft
2018/09/26 04:34 KEEN 260434Z AUTO 00000KT 2SM BR OVC002 A3013 RMK AO2 FZRANO $
KAFN - Jaffrey, New Hampshire, USA
Distance from station: SSE 35mi, 57km
Updated: Wed, Sep-26-2018 12:36am EDT
Light rain, Mist, Overcast
Light rain, Mist, Overcast
 Wind from calm
Wind: Calm
Temperature: 57°F , 14°C
Dew Point: 57°F , 14°C
Humidity: 100%
Barometer: 30.14 inHg , 1020.7 hPa
Summary: Light rain, Mist
Clouds: Overcast
Visibility: 2 1/2 miles , 4 km
Cloud details: Overcast 200 ft
2018/09/26 04:36 KAFN 260436Z AUTO 00000KT 2 1/2SM -RA BR OVC002 14/14 A3014 RMK AO2 RAB29 P0000 T01440144
 
KCON - Concord, New Hampshire, USA
Distance from station: E 35mi, 57km
Updated: Wed, Sep-26-2018 12:36am EDT
Mist, Overcast
Mist, Overcast
 Wind from W
Wind: W 3 mph , 6 km/h
Temperature: 59°F , 15°C
Dew Point: 57°F , 14°C
Humidity: 94%
Barometer: 30.12 inHg , 1020 hPa
Summary: Mist
Clouds: Overcast
Visibility: 3/4 mile , 1.2 km
Cloud details: Overcast 300 ft
2018/09/26 04:36 KCON 260436Z AUTO 28003KT 3/4SM BR VV003 15/14 A3012 RMK AO2 T01500144
K1P1 - Plymouth, New Hampshire, USA
Distance from station: NNE 41mi, 66km
Updated: Wed, Sep-26-2018 12:35am EDT
Mist, Overcast
Mist, Overcast
 Wind from calm
Wind: Calm
Temperature: 54°F , 12°C
Dew Point: 54°F , 12°C
Humidity: 100%
Barometer: 30.13 inHg , 1020.3 hPa
Summary: Mist
Clouds: Overcast
Visibility: 3 miles , 5 km
Cloud details: Overcast 1100 ft
2018/09/26 04:35 K1P1 260435Z AUTO 00000KT 3SM BR OVC011 12/12 A3013 RMK AO2 P0001 T01220116
 
KRUT - Rutland State, Vermont, USA
Distance from station: WNW 41mi, 66km
Updated: Tue, Sep-25-2018 11:56pm EDT
Overcast
Overcast
 Wind from SSE
Wind: SSE 7 mph , 11 km/h
Temperature: 63°F , 17°C
Dew Point: 57°F , 14°C
Humidity: 83%
Barometer: 30.08 inHg , 1018.6 hPa
Clouds: Overcast
Visibility: 10 miles , 16 km
Cloud details: Few Clouds 3300 ft
Overcast 4100 ft
2018/09/26 03:56 KRUT 260356Z AUTO 15006KT 10SM FEW033 OVC041 17/14 A3008 RMK AO2 SLP208 T01670144 PNO $
KLCI - Laconia Muni, New Hampshire, USA
Distance from station: ENE 44mi, 70km
Updated: Tue, Sep-25-2018 11:56pm EDT
Mist, Overcast
Mist, Overcast
 Wind from NNE
Wind: NNE 3 mph , 6 km/h
Temperature: 57°F , 14°C
Dew Point: 57°F , 14°C
Humidity: 100%
Barometer: 30.15 inHg , 1021 hPa
Summary: Mist
Clouds: Overcast
Visibility: 3 miles , 5 km
Cloud details: Overcast 500 ft
2018/09/26 03:56 KLCI 260356Z AUTO 03003KT 3SM BR OVC005 14/14 A3015 RMK AO2 CIG 004V008 SLP228 P0006 T01440139 401440039 PWINO
 
KMHT - Manchester, New Hampshire, USA
Distance from station: ESE 46mi, 73km
Updated: Wed, Sep-26-2018 12:39am EDT
Fog, Overcast
Fog, Overcast
 Wind from calm
Wind: Calm
Temperature: 63°F , 17°C
Dew Point: 63°F , 17°C
Humidity: 100%
Barometer: 30.10 inHg , 1019.3 hPa
Summary: Fog
Clouds: Overcast
Visibility: 1/4 mile , 0.4 km
Cloud details: Overcast 300 ft
2018/09/26 04:39 KMHT 260439Z 00000KT 1/4SM R35/1600V2200FT FG VV003 17/17 A3010 RMK AO2 TWR VIS 1/2 T01670167
KASH - Nashua/Boire Fld, New Hampshire, USA
Distance from station: SE 49mi, 79km
Updated: Tue, Sep-25-2018 11:56pm EDT
Overcast
Overcast
 Wind from calm
Wind: Calm
Temperature: 61°F , 16°C
Dew Point: 61°F , 16°C
Humidity: 100%
Barometer: 30.14 inHg , 1020.7 hPa
Clouds: Overcast
Visibility: 10 miles , 16 km
Cloud details: Overcast 400 ft
2018/09/26 03:56 KASH 260356Z AUTO 00000KT 10SM OVC004 16/16 A3014 RMK AO2 SLP217 T01610161 PNO $
 
KORE - Orange, Massachusetts, USA
Distance from station: S 50mi, 81km
Updated: Wed, Sep-26-2018 12:39am EDT
Mist, Overcast
Mist, Overcast
 Wind from calm
Wind: Calm
Temperature: 61°F , 16°C
Dew Point: 57°F , 14°C
Humidity: 88%
Barometer: 30.14 inHg , 1020.7 hPa
Summary: Mist
Clouds: Overcast
Visibility: 1 1/2 miles , 2.4 km
Cloud details: Overcast 300 ft
2018/09/26 04:39 KORE 260439Z AUTO 00000KT 1 1/2SM BR OVC003 16/14 A3014 RMK AO2 T01560144